sensor_id;sensor_type;location;lat;lon;timestamp;P1;durP1;ratioP1;P2;durP2;ratioP2
74957;SDS011;63741;42.624;26.276;2024-03-07T00:00:10;22.48;;;9.68;;
74957;SDS011;63741;42.624;26.276;2024-03-07T00:02:45;18.33;;;10.50;;
74957;SDS011;63741;42.624;26.276;2024-03-07T00:05:19;20.35;;;10.82;;
74957;SDS011;63741;42.624;26.276;2024-03-07T00:07:47;18.42;;;10.07;;
74957;SDS011;63741;42.624;26.276;2024-03-07T00:10:14;21.88;;;10.55;;
74957;SDS011;63741;42.624;26.276;2024-03-07T00:12:42;18.05;;;10.40;;
74957;SDS011;63741;42.624;26.276;2024-03-07T00:15:11;20.30;;;10.65;;
74957;SDS011;63741;42.624;26.276;2024-03-07T00:17:40;16.85;;;8.90;;
74957;SDS011;63741;42.624;26.276;2024-03-07T00:20:08;20.67;;;10.00;;
74957;SDS011;63741;42.624;26.276;2024-03-07T00:22:36;17.52;;;9.50;;
74957;SDS011;63741;42.624;26.276;2024-03-07T00:25:04;18.73;;;9.85;;
74957;SDS011;63741;42.624;26.276;2024-03-07T00:27:36;17.92;;;9.07;;
74957;SDS011;63741;42.624;26.276;2024-03-07T00:30:07;16.83;;;10.00;;
74957;SDS011;63741;42.624;26.276;2024-03-07T00:32:40;22.90;;;10.68;;
74957;SDS011;63741;42.624;26.276;2024-03-07T00:35:07;22.05;;;10.40;;
74957;SDS011;63741;42.624;26.276;2024-03-07T00:37:37;21.02;;;10.63;;
74957;SDS011;63741;42.624;26.276;2024-03-07T00:40:04;22.67;;;10.75;;
74957;SDS011;63741;42.624;26.276;2024-03-07T00:42:32;18.80;;;10.20;;
74957;SDS011;63741;42.624;26.276;2024-03-07T00:45:00;18.92;;;9.80;;
74957;SDS011;63741;42.624;26.276;2024-03-07T00:47:27;15.93;;;9.23;;
74957;SDS011;63741;42.624;26.276;2024-03-07T00:49:55;20.40;;;9.57;;
74957;SDS011;63741;42.624;26.276;2024-03-07T00:52:22;17.77;;;9.18;;
74957;SDS011;63741;42.624;26.276;2024-03-07T00:54:49;25.13;;;11.15;;
74957;SDS011;63741;42.624;26.276;2024-03-07T00:57:16;21.42;;;11.38;;
74957;SDS011;63741;42.624;26.276;2024-03-07T00:59:43;18.05;;;10.80;;
74957;SDS011;63741;42.624;26.276;2024-03-07T01:02:10;18.58;;;10.75;;
74957;SDS011;63741;42.624;26.276;2024-03-07T01:04:37;22.88;;;10.85;;
74957;SDS011;63741;42.624;26.276;2024-03-07T01:07:03;15.13;;;9.65;;
74957;SDS011;63741;42.624;26.276;2024-03-07T01:09:30;18.73;;;10.23;;
74957;SDS011;63741;42.624;26.276;2024-03-07T01:11:57;19.17;;;9.95;;
74957;SDS011;63741;42.624;26.276;2024-03-07T01:14:26;17.50;;;9.70;;
74957;SDS011;63741;42.624;26.276;2024-03-07T01:16:54;17.85;;;10.55;;
74957;SDS011;63741;42.624;26.276;2024-03-07T01:19:21;19.15;;;9.48;;
74957;SDS011;63741;42.624;26.276;2024-03-07T01:21:48;20.17;;;9.40;;
74957;SDS011;63741;42.624;26.276;2024-03-07T01:24:15;21.35;;;10.13;;
74957;SDS011;63741;42.624;26.276;2024-03-07T01:26:47;16.88;;;10.02;;
74957;SDS011;63741;42.624;26.276;2024-03-07T01:29:14;18.48;;;10.48;;
74957;SDS011;63741;42.624;26.276;2024-03-07T01:31:42;19.00;;;10.18;;
74957;SDS011;63741;42.624;26.276;2024-03-07T01:34:09;16.80;;;9.48;;
74957;SDS011;63741;42.624;26.276;2024-03-07T01:36:36;18.30;;;10.30;;
74957;SDS011;63741;42.624;26.276;2024-03-07T01:39:03;18.05;;;9.80;;
74957;SDS011;63741;42.624;26.276;2024-03-07T01:41:30;17.95;;;9.48;;
74957;SDS011;63741;42.624;26.276;2024-03-07T01:43:57;15.98;;;10.27;;
74957;SDS011;63741;42.624;26.276;2024-03-07T01:46:25;17.85;;;9.80;;
74957;SDS011;63741;42.624;26.276;2024-03-07T01:48:52;20.70;;;10.30;;
74957;SDS011;63741;42.624;26.276;2024-03-07T01:51:20;15.77;;;10.18;;
74957;SDS011;63741;42.624;26.276;2024-03-07T01:53:48;18.67;;;9.70;;
74957;SDS011;63741;42.624;26.276;2024-03-07T01:56:16;19.23;;;10.45;;
74957;SDS011;63741;42.624;26.276;2024-03-07T01:58:44;18.88;;;10.27;;
74957;SDS011;63741;42.624;26.276;2024-03-07T02:01:14;21.88;;;10.65;;
74957;SDS011;63741;42.624;26.276;2024-03-07T02:03:42;17.77;;;10.32;;
74957;SDS011;63741;42.624;26.276;2024-03-07T02:06:09;20.10;;;10.10;;
74957;SDS011;63741;42.624;26.276;2024-03-07T02:08:38;19.17;;;10.60;;
74957;SDS011;63741;42.624;26.276;2024-03-07T02:11:05;16.63;;;9.70;;
74957;SDS011;63741;42.624;26.276;2024-03-07T02:13:32;19.98;;;9.90;;
74957;SDS011;63741;42.624;26.276;2024-03-07T02:15:59;17.40;;;9.25;;
74957;SDS011;63741;42.624;26.276;2024-03-07T02:18:26;21.02;;;10.38;;
74957;SDS011;63741;42.624;26.276;2024-03-07T02:20:53;19.65;;;9.52;;
74957;SDS011;63741;42.624;26.276;2024-03-07T02:23:21;16.75;;;10.10;;
74957;SDS011;63741;42.624;26.276;2024-03-07T02:25:48;19.42;;;10.50;;
74957;SDS011;63741;42.624;26.276;2024-03-07T02:28:15;18.00;;;10.18;;
74957;SDS011;63741;42.624;26.276;2024-03-07T02:30:42;16.35;;;9.50;;
74957;SDS011;63741;42.624;26.276;2024-03-07T02:33:12;20.45;;;9.77;;
74957;SDS011;63741;42.624;26.276;2024-03-07T02:35:39;24.95;;;11.68;;
74957;SDS011;63741;42.624;26.276;2024-03-07T02:38:06;17.17;;;9.20;;
74957;SDS011;63741;42.624;26.276;2024-03-07T02:40:33;18.83;;;9.75;;
74957;SDS011;63741;42.624;26.276;2024-03-07T02:43:00;17.90;;;10.32;;
74957;SDS011;63741;42.624;26.276;2024-03-07T02:45:31;19.65;;;11.02;;
74957;SDS011;63741;42.624;26.276;2024-03-07T02:47:58;22.90;;;11.50;;
74957;SDS011;63741;42.624;26.276;2024-03-07T02:50:26;18.08;;;10.18;;
74957;SDS011;63741;42.624;26.276;2024-03-07T02:52:53;20.45;;;11.73;;
74957;SDS011;63741;42.624;26.276;2024-03-07T02:55:20;19.85;;;11.30;;
74957;SDS011;63741;42.624;26.276;2024-03-07T02:57:47;20.48;;;12.43;;
74957;SDS011;63741;42.624;26.276;2024-03-07T03:00:14;18.30;;;10.82;;
74957;SDS011;63741;42.624;26.276;2024-03-07T03:02:50;19.35;;;10.40;;
74957;SDS011;63741;42.624;26.276;2024-03-07T03:05:17;21.35;;;10.48;;
74957;SDS011;63741;42.624;26.276;2024-03-07T03:07:45;18.58;;;10.60;;
74957;SDS011;63741;42.624;26.276;2024-03-07T03:10:23;21.67;;;10.65;;
74957;SDS011;63741;42.624;26.276;2024-03-07T03:12:56;18.83;;;10.50;;
74957;SDS011;63741;42.624;26.276;2024-03-07T03:15:28;18.95;;;10.65;;
74957;SDS011;63741;42.624;26.276;2024-03-07T03:17:57;19.17;;;10.30;;
74957;SDS011;63741;42.624;26.276;2024-03-07T03:20:28;18.70;;;9.82;;
74957;SDS011;63741;42.624;26.276;2024-03-07T03:23:02;19.58;;;10.20;;
74957;SDS011;63741;42.624;26.276;2024-03-07T03:25:45;19.92;;;9.73;;
74957;SDS011;63741;42.624;26.276;2024-03-07T03:28:13;15.60;;;10.27;;
74957;SDS011;63741;42.624;26.276;2024-03-07T03:30:41;19.50;;;10.38;;
74957;SDS011;63741;42.624;26.276;2024-03-07T03:33:09;18.38;;;10.23;;
74957;SDS011;63741;42.624;26.276;2024-03-07T03:35:37;16.90;;;10.10;;
74957;SDS011;63741;42.624;26.276;2024-03-07T03:38:05;21.10;;;9.52;;
74957;SDS011;63741;42.624;26.276;2024-03-07T03:40:33;18.92;;;10.43;;
74957;SDS011;63741;42.624;26.276;2024-03-07T03:43:01;17.70;;;10.32;;
74957;SDS011;63741;42.624;26.276;2024-03-07T03:45:28;22.05;;;10.82;;
74957;SDS011;63741;42.624;26.276;2024-03-07T03:47:55;20.48;;;10.18;;
74957;SDS011;63741;42.624;26.276;2024-03-07T03:50:23;18.65;;;10.25;;
74957;SDS011;63741;42.624;26.276;2024-03-07T03:52:50;15.15;;;10.00;;
74957;SDS011;63741;42.624;26.276;2024-03-07T03:55:17;19.02;;;10.60;;
74957;SDS011;63741;42.624;26.276;2024-03-07T03:57:44;18.92;;;10.98;;
74957;SDS011;63741;42.624;26.276;2024-03-07T04:00:15;22.80;;;10.50;;
74957;SDS011;63741;42.624;26.276;2024-03-07T04:02:44;18.45;;;9.73;;
74957;SDS011;63741;42.624;26.276;2024-03-07T04:05:16;16.45;;;10.23;;
74957;SDS011;63741;42.624;26.276;2024-03-07T04:07:44;21.98;;;10.45;;
74957;SDS011;63741;42.624;26.276;2024-03-07T04:10:12;17.30;;;10.07;;
74957;SDS011;63741;42.624;26.276;2024-03-07T04:12:40;17.33;;;10.18;;
74957;SDS011;63741;42.624;26.276;2024-03-07T04:15:08;19.92;;;10.18;;
74957;SDS011;63741;42.624;26.276;2024-03-07T04:20:07;18.55;;;10.65;;
74957;SDS011;63741;42.624;26.276;2024-03-07T04:22:37;18.95;;;10.30;;
74957;SDS011;63741;42.624;26.276;2024-03-07T04:25:07;18.73;;;11.15;;
74957;SDS011;63741;42.624;26.276;2024-03-07T04:27:36;20.23;;;10.38;;
74957;SDS011;63741;42.624;26.276;2024-03-07T04:30:04;20.63;;;10.50;;
74957;SDS011;63741;42.624;26.276;2024-03-07T04:32:32;19.27;;;11.23;;
74957;SDS011;63741;42.624;26.276;2024-03-07T04:35:00;20.38;;;11.07;;
74957;SDS011;63741;42.624;26.276;2024-03-07T04:37:34;17.35;;;10.77;;
74957;SDS011;63741;42.624;26.276;2024-03-07T04:40:04;19.42;;;10.98;;
74957;SDS011;63741;42.624;26.276;2024-03-07T04:42:42;23.15;;;12.27;;
74957;SDS011;63741;42.624;26.276;2024-03-07T04:45:10;27.35;;;13.15;;
74957;SDS011;63741;42.624;26.276;2024-03-07T04:47:41;24.60;;;12.93;;
74957;SDS011;63741;42.624;26.276;2024-03-07T04:50:09;18.25;;;11.13;;
74957;SDS011;63741;42.624;26.276;2024-03-07T04:52:37;21.75;;;11.77;;
74957;SDS011;63741;42.624;26.276;2024-03-07T04:55:07;31.25;;;16.27;;
74957;SDS011;63741;42.624;26.276;2024-03-07T04:57:37;28.40;;;12.70;;
74957;SDS011;63741;42.624;26.276;2024-03-07T05:00:12;19.80;;;11.52;;
74957;SDS011;63741;42.624;26.276;2024-03-07T05:02:48;22.17;;;12.68;;
74957;SDS011;63741;42.624;26.276;2024-03-07T05:05:18;41.22;;;16.98;;
74957;SDS011;63741;42.624;26.276;2024-03-07T05:07:50;72.15;;;22.08;;
74957;SDS011;63741;42.624;26.276;2024-03-07T05:10:19;24.60;;;12.50;;
74957;SDS011;63741;42.624;26.276;2024-03-07T05:12:46;41.60;;;12.52;;
74957;SDS011;63741;42.624;26.276;2024-03-07T05:15:13;22.50;;;11.73;;
74957;SDS011;63741;42.624;26.276;2024-03-07T05:17:40;34.58;;;17.98;;
74957;SDS011;63741;42.624;26.276;2024-03-07T05:20:10;81.72;;;16.83;;
74957;SDS011;63741;42.624;26.276;2024-03-07T05:22:39;22.88;;;11.40;;
74957;SDS011;63741;42.624;26.276;2024-03-07T05:25:07;29.23;;;11.95;;
74957;SDS011;63741;42.624;26.276;2024-03-07T05:27:36;57.42;;;13.20;;
74957;SDS011;63741;42.624;26.276;2024-03-07T05:30:03;93.90;;;14.48;;
74957;SDS011;63741;42.624;26.276;2024-03-07T05:32:36;43.75;;;12.73;;
74957;SDS011;63741;42.624;26.276;2024-03-07T05:35:03;32.83;;;13.20;;
74957;SDS011;63741;42.624;26.276;2024-03-07T05:37:30;26.23;;;12.65;;
74957;SDS011;63741;42.624;26.276;2024-03-07T05:39:58;31.70;;;15.10;;
74957;SDS011;63741;42.624;26.276;2024-03-07T05:42:26;21.42;;;12.15;;
74957;SDS011;63741;42.624;26.276;2024-03-07T05:44:53;21.45;;;12.15;;
74957;SDS011;63741;42.624;26.276;2024-03-07T05:47:21;24.35;;;13.20;;
74957;SDS011;63741;42.624;26.276;2024-03-07T05:49:48;29.27;;;14.70;;
74957;SDS011;63741;42.624;26.276;2024-03-07T05:52:15;30.58;;;15.00;;
74957;SDS011;63741;42.624;26.276;2024-03-07T05:54:42;28.33;;;13.50;;
74957;SDS011;63741;42.624;26.276;2024-03-07T05:57:11;28.23;;;12.55;;
74957;SDS011;63741;42.624;26.276;2024-03-07T05:59:38;33.33;;;15.57;;
74957;SDS011;63741;42.624;26.276;2024-03-07T06:02:05;34.83;;;15.10;;
74957;SDS011;63741;42.624;26.276;2024-03-07T06:04:32;21.75;;;12.18;;
74957;SDS011;63741;42.624;26.276;2024-03-07T06:07:01;22.98;;;11.85;;
74957;SDS011;63741;42.624;26.276;2024-03-07T06:09:28;35.10;;;13.82;;
74957;SDS011;63741;42.624;26.276;2024-03-07T06:11:55;33.55;;;14.93;;
74957;SDS011;63741;42.624;26.276;2024-03-07T06:14:22;29.65;;;16.08;;
74957;SDS011;63741;42.624;26.276;2024-03-07T06:16:51;32.20;;;14.48;;
74957;SDS011;63741;42.624;26.276;2024-03-07T06:19:19;28.80;;;14.95;;
74957;SDS011;63741;42.624;26.276;2024-03-07T06:21:46;24.58;;;12.07;;
74957;SDS011;63741;42.624;26.276;2024-03-07T06:24:13;31.33;;;12.45;;
74957;SDS011;63741;42.624;26.276;2024-03-07T06:26:42;31.90;;;14.13;;
74957;SDS011;63741;42.624;26.276;2024-03-07T06:29:26;26.35;;;12.70;;
74957;SDS011;63741;42.624;26.276;2024-03-07T06:31:54;23.30;;;13.13;;
74957;SDS011;63741;42.624;26.276;2024-03-07T06:34:22;23.55;;;13.68;;
74957;SDS011;63741;42.624;26.276;2024-03-07T06:36:49;30.15;;;12.60;;
74957;SDS011;63741;42.624;26.276;2024-03-07T06:39:16;41.95;;;19.20;;
74957;SDS011;63741;42.624;26.276;2024-03-07T06:41:43;31.50;;;15.20;;
74957;SDS011;63741;42.624;26.276;2024-03-07T06:44:12;23.05;;;11.45;;
74957;SDS011;63741;42.624;26.276;2024-03-07T06:46:39;21.65;;;12.43;;
74957;SDS011;63741;42.624;26.276;2024-03-07T06:49:06;25.63;;;12.15;;
74957;SDS011;63741;42.624;26.276;2024-03-07T06:51:37;28.17;;;13.68;;
74957;SDS011;63741;42.624;26.276;2024-03-07T06:54:06;22.13;;;12.55;;
74957;SDS011;63741;42.624;26.276;2024-03-07T06:56:33;17.90;;;10.23;;
74957;SDS011;63741;42.624;26.276;2024-03-07T06:59:00;21.27;;;10.25;;
74957;SDS011;63741;42.624;26.276;2024-03-07T07:01:31;21.85;;;10.70;;
74957;SDS011;63741;42.624;26.276;2024-03-07T07:03:58;23.70;;;10.38;;
74957;SDS011;63741;42.624;26.276;2024-03-07T07:06:30;21.08;;;10.27;;
74957;SDS011;63741;42.624;26.276;2024-03-07T07:08:58;16.30;;;9.15;;
74957;SDS011;63741;42.624;26.276;2024-03-07T07:11:26;19.75;;;10.55;;
74957;SDS011;63741;42.624;26.276;2024-03-07T07:13:59;18.73;;;9.20;;
74957;SDS011;63741;42.624;26.276;2024-03-07T07:16:26;17.10;;;8.88;;
74957;SDS011;63741;42.624;26.276;2024-03-07T07:18:54;18.95;;;9.20;;
74957;SDS011;63741;42.624;26.276;2024-03-07T07:21:21;15.98;;;8.52;;
74957;SDS011;63741;42.624;26.276;2024-03-07T07:23:48;18.30;;;8.60;;
74957;SDS011;63741;42.624;26.276;2024-03-07T07:26:15;17.33;;;8.65;;
74957;SDS011;63741;42.624;26.276;2024-03-07T07:28:42;19.60;;;9.60;;
74957;SDS011;63741;42.624;26.276;2024-03-07T07:31:09;22.77;;;10.32;;
74957;SDS011;63741;42.624;26.276;2024-03-07T07:33:36;16.83;;;9.43;;
74957;SDS011;63741;42.624;26.276;2024-03-07T07:36:03;16.75;;;9.93;;
74957;SDS011;63741;42.624;26.276;2024-03-07T07:38:30;27.08;;;9.32;;
74957;SDS011;63741;42.624;26.276;2024-03-07T07:40:58;31.27;;;9.93;;
74957;SDS011;63741;42.624;26.276;2024-03-07T07:43:25;21.38;;;10.32;;
74957;SDS011;63741;42.624;26.276;2024-03-07T07:46:07;31.25;;;10.55;;
74957;SDS011;63741;42.624;26.276;2024-03-07T07:48:34;29.35;;;9.52;;
74957;SDS011;63741;42.624;26.276;2024-03-07T07:51:01;21.95;;;9.68;;
74957;SDS011;63741;42.624;26.276;2024-03-07T07:53:28;15.68;;;9.13;;
74957;SDS011;63741;42.624;26.276;2024-03-07T07:55:56;17.67;;;9.35;;
74957;SDS011;63741;42.624;26.276;2024-03-07T07:58:23;20.02;;;9.43;;
74957;SDS011;63741;42.624;26.276;2024-03-07T08:00:50;16.40;;;9.55;;
74957;SDS011;63741;42.624;26.276;2024-03-07T08:03:16;23.42;;;9.27;;
74957;SDS011;63741;42.624;26.276;2024-03-07T08:05:44;24.02;;;9.25;;
74957;SDS011;63741;42.624;26.276;2024-03-07T08:08:14;16.35;;;8.93;;
74957;SDS011;63741;42.624;26.276;2024-03-07T08:10:43;17.15;;;9.73;;
74957;SDS011;63741;42.624;26.276;2024-03-07T08:13:14;17.38;;;8.10;;
74957;SDS011;63741;42.624;26.276;2024-03-07T08:15:41;15.02;;;8.02;;
74957;SDS011;63741;42.624;26.276;2024-03-07T08:18:09;27.23;;;8.90;;
74957;SDS011;63741;42.624;26.276;2024-03-07T08:20:38;17.58;;;8.13;;
74957;SDS011;63741;42.624;26.276;2024-03-07T08:23:07;14.55;;;8.23;;
74957;SDS011;63741;42.624;26.276;2024-03-07T08:25:35;13.75;;;8.35;;
74957;SDS011;63741;42.624;26.276;2024-03-07T08:28:03;16.25;;;8.25;;
74957;SDS011;63741;42.624;26.276;2024-03-07T08:30:32;25.10;;;9.27;;
74957;SDS011;63741;42.624;26.276;2024-03-07T08:32:59;22.67;;;10.07;;
74957;SDS011;63741;42.624;26.276;2024-03-07T08:35:29;18.17;;;8.95;;
74957;SDS011;63741;42.624;26.276;2024-03-07T08:37:56;16.75;;;8.90;;
74957;SDS011;63741;42.624;26.276;2024-03-07T08:40:25;17.27;;;8.80;;
74957;SDS011;63741;42.624;26.276;2024-03-07T08:42:58;19.60;;;8.18;;
74957;SDS011;63741;42.624;26.276;2024-03-07T08:45:26;17.85;;;9.10;;
74957;SDS011;63741;42.624;26.276;2024-03-07T08:47:54;21.98;;;9.73;;
74957;SDS011;63741;42.624;26.276;2024-03-07T08:50:25;20.23;;;9.82;;
74957;SDS011;63741;42.624;26.276;2024-03-07T08:52:53;23.42;;;8.80;;
74957;SDS011;63741;42.624;26.276;2024-03-07T08:55:24;16.55;;;9.25;;
74957;SDS011;63741;42.624;26.276;2024-03-07T08:57:52;20.80;;;9.52;;
74957;SDS011;63741;42.624;26.276;2024-03-07T09:00:19;16.90;;;9.45;;
74957;SDS011;63741;42.624;26.276;2024-03-07T09:02:57;30.35;;;9.15;;
74957;SDS011;63741;42.624;26.276;2024-03-07T09:05:29;35.40;;;9.35;;
74957;SDS011;63741;42.624;26.276;2024-03-07T09:08:00;18.38;;;9.38;;
74957;SDS011;63741;42.624;26.276;2024-03-07T09:10:28;20.38;;;9.13;;
74957;SDS011;63741;42.624;26.276;2024-03-07T09:12:59;23.17;;;9.98;;
74957;SDS011;63741;42.624;26.276;2024-03-07T09:15:26;21.77;;;9.73;;
74957;SDS011;63741;42.624;26.276;2024-03-07T09:17:54;21.05;;;10.27;;
74957;SDS011;63741;42.624;26.276;2024-03-07T09:20:22;17.63;;;10.32;;
74957;SDS011;63741;42.624;26.276;2024-03-07T09:22:50;20.98;;;11.38;;
74957;SDS011;63741;42.624;26.276;2024-03-07T09:25:21;20.35;;;10.75;;
74957;SDS011;63741;42.624;26.276;2024-03-07T09:27:50;20.75;;;12.55;;
74957;SDS011;63741;42.624;26.276;2024-03-07T09:30:16;20.10;;;11.60;;
74957;SDS011;63741;42.624;26.276;2024-03-07T09:32:48;20.15;;;11.60;;
74957;SDS011;63741;42.624;26.276;2024-03-07T09:35:16;23.00;;;11.77;;
74957;SDS011;63741;42.624;26.276;2024-03-07T09:37:44;18.95;;;10.85;;
74957;SDS011;63741;42.624;26.276;2024-03-07T09:40:12;18.45;;;10.38;;
74957;SDS011;63741;42.624;26.276;2024-03-07T09:42:44;17.33;;;9.13;;
74957;SDS011;63741;42.624;26.276;2024-03-07T09:45:15;20.10;;;10.13;;
74957;SDS011;63741;42.624;26.276;2024-03-07T09:47:47;17.17;;;9.57;;
74957;SDS011;63741;42.624;26.276;2024-03-07T09:50:16;16.80;;;9.93;;
74957;SDS011;63741;42.624;26.276;2024-03-07T09:52:49;17.80;;;9.75;;
74957;SDS011;63741;42.624;26.276;2024-03-07T09:55:19;20.38;;;9.88;;
74957;SDS011;63741;42.624;26.276;2024-03-07T09:57:48;20.25;;;10.20;;
74957;SDS011;63741;42.624;26.276;2024-03-07T10:00:17;18.80;;;9.75;;
74957;SDS011;63741;42.624;26.276;2024-03-07T10:02:59;15.80;;;9.95;;
74957;SDS011;63741;42.624;26.276;2024-03-07T10:05:30;18.23;;;9.10;;
74957;SDS011;63741;42.624;26.276;2024-03-07T10:07:58;19.48;;;9.70;;
74957;SDS011;63741;42.624;26.276;2024-03-07T10:10:27;18.98;;;8.77;;
74957;SDS011;63741;42.624;26.276;2024-03-07T10:12:54;18.15;;;10.05;;
74957;SDS011;63741;42.624;26.276;2024-03-07T10:15:29;17.33;;;9.80;;
74957;SDS011;63741;42.624;26.276;2024-03-07T10:18:01;19.20;;;9.77;;
74957;SDS011;63741;42.624;26.276;2024-03-07T10:20:29;19.20;;;9.95;;
74957;SDS011;63741;42.624;26.276;2024-03-07T10:22:56;19.63;;;9.77;;
74957;SDS011;63741;42.624;26.276;2024-03-07T10:25:24;21.73;;;9.93;;
74957;SDS011;63741;42.624;26.276;2024-03-07T10:27:55;19.98;;;10.20;;
74957;SDS011;63741;42.624;26.276;2024-03-07T10:30:22;40.20;;;14.65;;
74957;SDS011;63741;42.624;26.276;2024-03-07T10:32:55;22.00;;;11.23;;
74957;SDS011;63741;42.624;26.276;2024-03-07T10:35:25;16.77;;;10.13;;
74957;SDS011;63741;42.624;26.276;2024-03-07T10:37:55;29.48;;;12.05;;
74957;SDS011;63741;42.624;26.276;2024-03-07T10:40:22;20.92;;;10.80;;
74957;SDS011;63741;42.624;26.276;2024-03-07T10:42:53;20.20;;;11.52;;
74957;SDS011;63741;42.624;26.276;2024-03-07T10:45:24;21.30;;;11.18;;
74957;SDS011;63741;42.624;26.276;2024-03-07T10:47:56;19.55;;;11.13;;
74957;SDS011;63741;42.624;26.276;2024-03-07T10:53:37;19.48;;;11.50;;
74957;SDS011;63741;42.624;26.276;2024-03-07T10:56:18;23.45;;;11.90;;
74957;SDS011;63741;42.624;26.276;2024-03-07T11:01:49;20.73;;;13.10;;
74957;SDS011;63741;42.624;26.276;2024-03-07T11:04:21;23.60;;;13.93;;
74957;SDS011;63741;42.624;26.276;2024-03-07T11:06:49;24.08;;;12.50;;
74957;SDS011;63741;42.624;26.276;2024-03-07T11:09:16;21.33;;;13.30;;
74957;SDS011;63741;42.624;26.276;2024-03-07T11:11:49;25.98;;;16.33;;
74957;SDS011;63741;42.624;26.276;2024-03-07T11:14:17;22.90;;;14.27;;
74957;SDS011;63741;42.624;26.276;2024-03-07T11:16:45;25.48;;;16.13;;
74957;SDS011;63741;42.624;26.276;2024-03-07T11:19:20;23.52;;;14.13;;
74957;SDS011;63741;42.624;26.276;2024-03-07T11:21:55;23.05;;;13.13;;
74957;SDS011;63741;42.624;26.276;2024-03-07T11:24:23;18.70;;;10.93;;
74957;SDS011;63741;42.624;26.276;2024-03-07T11:26:52;20.88;;;11.55;;
74957;SDS011;63741;42.624;26.276;2024-03-07T11:32:39;25.70;;;15.55;;
74957;SDS011;63741;42.624;26.276;2024-03-07T11:35:13;20.90;;;11.07;;
74957;SDS011;63741;42.624;26.276;2024-03-07T11:37:41;41.60;;;23.13;;
74957;SDS011;63741;42.624;26.276;2024-03-07T11:42:46;23.45;;;12.68;;
74957;SDS011;63741;42.624;26.276;2024-03-07T11:45:14;22.42;;;12.43;;
74957;SDS011;63741;42.624;26.276;2024-03-07T11:47:52;24.70;;;13.00;;
74957;SDS011;63741;42.624;26.276;2024-03-07T11:50:27;18.08;;;12.05;;
74957;SDS011;63741;42.624;26.276;2024-03-07T11:52:54;24.08;;;13.85;;
74957;SDS011;63741;42.624;26.276;2024-03-07T11:55:23;24.98;;;13.15;;
74957;SDS011;63741;42.624;26.276;2024-03-07T11:57:50;25.33;;;13.77;;
74957;SDS011;63741;42.624;26.276;2024-03-07T12:00:18;22.63;;;12.77;;
74957;SDS011;63741;42.624;26.276;2024-03-07T12:02:45;25.00;;;12.75;;
74957;SDS011;63741;42.624;26.276;2024-03-07T12:05:15;24.13;;;12.88;;
74957;SDS011;63741;42.624;26.276;2024-03-07T12:07:43;19.58;;;11.68;;
74957;SDS011;63741;42.624;26.276;2024-03-07T12:10:12;20.15;;;12.07;;
74957;SDS011;63741;42.624;26.276;2024-03-07T12:12:39;21.63;;;11.77;;
74957;SDS011;63741;42.624;26.276;2024-03-07T12:15:06;21.45;;;12.05;;
74957;SDS011;63741;42.624;26.276;2024-03-07T12:17:42;17.95;;;11.85;;
74957;SDS011;63741;42.624;26.276;2024-03-07T12:20:10;19.25;;;10.77;;
74957;SDS011;63741;42.624;26.276;2024-03-07T12:23:00;23.42;;;12.52;;
74957;SDS011;63741;42.624;26.276;2024-03-07T12:25:29;19.55;;;10.93;;
74957;SDS011;63741;42.624;26.276;2024-03-07T12:28:07;19.20;;;11.18;;
74957;SDS011;63741;42.624;26.276;2024-03-07T12:30:49;17.63;;;10.20;;
74957;SDS011;63741;42.624;26.276;2024-03-07T12:33:17;16.75;;;10.30;;
74957;SDS011;63741;42.624;26.276;2024-03-07T12:35:46;17.80;;;10.57;;
74957;SDS011;63741;42.624;26.276;2024-03-07T12:38:16;17.38;;;10.93;;
74957;SDS011;63741;42.624;26.276;2024-03-07T12:40:44;26.70;;;16.77;;
74957;SDS011;63741;42.624;26.276;2024-03-07T12:43:17;23.45;;;13.07;;
74957;SDS011;63741;42.624;26.276;2024-03-07T12:45:48;33.90;;;17.83;;
74957;SDS011;63741;42.624;26.276;2024-03-07T12:48:16;40.47;;;22.13;;
74957;SDS011;63741;42.624;26.276;2024-03-07T12:50:48;26.95;;;17.33;;
74957;SDS011;63741;42.624;26.276;2024-03-07T12:53:20;41.10;;;20.33;;
74957;SDS011;63741;42.624;26.276;2024-03-07T12:55:49;28.52;;;15.90;;
74957;SDS011;63741;42.624;26.276;2024-03-07T12:58:15;22.58;;;13.93;;
74957;SDS011;63741;42.624;26.276;2024-03-07T13:00:43;24.50;;;13.43;;
74957;SDS011;63741;42.624;26.276;2024-03-07T13:03:10;19.73;;;11.38;;
74957;SDS011;63741;42.624;26.276;2024-03-07T13:05:37;18.88;;;11.05;;
74957;SDS011;63741;42.624;26.276;2024-03-07T13:08:07;19.25;;;11.32;;
74957;SDS011;63741;42.624;26.276;2024-03-07T13:10:43;23.08;;;13.80;;
74957;SDS011;63741;42.624;26.276;2024-03-07T13:13:12;20.35;;;11.20;;
74957;SDS011;63741;42.624;26.276;2024-03-07T13:15:40;19.40;;;11.98;;
74957;SDS011;63741;42.624;26.276;2024-03-07T13:18:08;17.88;;;11.02;;
74957;SDS011;63741;42.624;26.276;2024-03-07T13:20:35;26.08;;;14.88;;
74957;SDS011;63741;42.624;26.276;2024-03-07T13:23:03;22.73;;;13.38;;
74957;SDS011;63741;42.624;26.276;2024-03-07T13:25:30;20.00;;;13.27;;
74957;SDS011;63741;42.624;26.276;2024-03-07T13:28:01;18.05;;;11.68;;
74957;SDS011;63741;42.624;26.276;2024-03-07T13:30:29;18.70;;;12.77;;
74957;SDS011;63741;42.624;26.276;2024-03-07T13:32:56;25.40;;;12.68;;
74957;SDS011;63741;42.624;26.276;2024-03-07T13:35:25;19.67;;;11.82;;
74957;SDS011;63741;42.624;26.276;2024-03-07T13:37:53;18.10;;;10.70;;
74957;SDS011;63741;42.624;26.276;2024-03-07T13:40:24;19.00;;;11.18;;
74957;SDS011;63741;42.624;26.276;2024-03-07T13:42:56;25.77;;;13.05;;
74957;SDS011;63741;42.624;26.276;2024-03-07T13:45:25;21.13;;;12.27;;
74957;SDS011;63741;42.624;26.276;2024-03-07T13:48:03;18.90;;;10.90;;
74957;SDS011;63741;42.624;26.276;2024-03-07T13:50:32;18.40;;;11.05;;
74957;SDS011;63741;42.624;26.276;2024-03-07T13:53:20;20.77;;;11.75;;
74957;SDS011;63741;42.624;26.276;2024-03-07T14:13:20;22.73;;;13.40;;
74957;SDS011;63741;42.624;26.276;2024-03-07T14:22:21;19.88;;;10.55;;
74957;SDS011;63741;42.624;26.276;2024-03-07T14:25:07;23.10;;;12.35;;
74957;SDS011;63741;42.624;26.276;2024-03-07T14:30:52;23.52;;;15.05;;
74957;SDS011;63741;42.624;26.276;2024-03-07T14:39:15;17.35;;;10.27;;
74957;SDS011;63741;42.624;26.276;2024-03-07T14:44:18;17.30;;;10.70;;
74957;SDS011;63741;42.624;26.276;2024-03-07T14:46:47;18.63;;;11.23;;
74957;SDS011;63741;42.624;26.276;2024-03-07T14:49:19;17.48;;;10.30;;
74957;SDS011;63741;42.624;26.276;2024-03-07T14:51:46;16.83;;;10.27;;
74957;SDS011;63741;42.624;26.276;2024-03-07T14:54:26;16.42;;;10.77;;
74957;SDS011;63741;42.624;26.276;2024-03-07T14:56:53;20.60;;;11.45;;
74957;SDS011;63741;42.624;26.276;2024-03-07T14:59:21;20.65;;;12.00;;
74957;SDS011;63741;42.624;26.276;2024-03-07T15:01:48;25.27;;;14.77;;
74957;SDS011;63741;42.624;26.276;2024-03-07T15:04:15;16.55;;;10.82;;
74957;SDS011;63741;42.624;26.276;2024-03-07T15:06:42;17.92;;;11.48;;
74957;SDS011;63741;42.624;26.276;2024-03-07T15:09:11;21.83;;;13.02;;
74957;SDS011;63741;42.624;26.276;2024-03-07T15:11:40;25.88;;;14.82;;